Time;durP1;ratioP1;P1;durP2;ratioP2;P2;SDS_P1;SDS_P2;PMS_P1;PMS_P2;Temp;Humidity;BMP_temperature;BMP_pressure;BME280_temperature;BME280_humidity;BME280_pressure;Samples;Min_cycle;Max_cycle;Signal;HPM_P1;HPM_P2
2022/09/12 00:01:46;;;;;;;14.60;13.90;;;;;;;16.42;100.00;100081.88;5040531;28;20017;-64
2022/09/12 00:04:11;;;;;;;15.45;14.65;;;;;;;16.30;100.00;100087.97;5051481;28;20048;-63
2022/09/12 00:06:37;;;;;;;15.77;14.88;;;;;;;16.17;100.00;100085.44;5051482;28;20070;-63
2022/09/12 00:09:06;;;;;;;16.92;15.88;;;;;;;16.15;100.00;100084.81;5049920;28;20021;-61
2022/09/12 00:11:38;;;;;;;15.23;14.43;;;;;;;16.22;100.00;100085.56;5051313;28;20052;-63
2022/09/12 00:14:05;;;;;;;15.40;14.60;;;;;;;16.05;100.00;100089.88;5051643;28;20036;-63
2022/09/12 00:16:32;;;;;;;15.52;14.73;;;;;;;16.05;100.00;100087.22;5045958;28;20158;-63
2022/09/12 00:18:59;;;;;;;15.10;14.30;;;;;;;15.97;100.00;100082.13;5048500;28;20063;-63
2022/09/12 00:21:26;;;;;;;15.30;14.50;;;;;;;15.87;100.00;100084.50;5051357;28;20033;-63
2022/09/12 00:23:52;;;;;;;15.38;14.57;;;;;;;15.67;100.00;100080.16;5051459;28;20021;-64
2022/09/12 00:26:19;;;;;;;15.55;14.75;;;;;;;15.80;100.00;100073.88;5051474;28;20052;-64
2022/09/12 00:28:46;;;;;;;15.80;14.90;;;;;;;15.85;100.00;100082.03;5045940;28;20029;-63
2022/09/12 00:31:14;;;;;;;16.10;15.20;;;;;;;15.90;100.00;100084.06;5035264;28;20021;-63
2022/09/12 00:33:40;;;;;;;15.48;14.68;;;;;;;15.82;100.00;100073.66;5050095;28;20028;-63
2022/09/12 00:36:13;;;;;;;15.55;14.75;;;;;;;15.71;100.00;100073.31;5050942;28;20037;-63
2022/09/12 00:38:40;;;;;;;15.40;14.60;;;;;;;15.72;100.00;100077.66;5051161;28;20053;-63
2022/09/12 00:41:10;;;;;;;15.52;14.73;;;;;;;15.74;100.00;100074.75;5050889;28;20048;-64
2022/09/12 00:43:39;;;;;;;15.55;14.75;;;;;;;15.69;100.00;100082.59;5039426;28;20032;-63
2022/09/12 00:46:10;;;;;;;16.00;15.10;;;;;;;15.68;100.00;100078.28;5041238;28;20025;-63
2022/09/12 00:48:43;;;;;;;15.85;14.95;;;;;;;15.67;100.00;100080.16;5045873;28;20037;-63
2022/09/12 00:51:09;;;;;;;15.63;14.82;;;;;;;15.69;100.00;100086.09;5045203;28;20456;-63
2022/09/12 00:53:35;;;;;;;15.50;14.70;;;;;;;15.60;100.00;100086.56;5050723;28;20046;-63
2022/09/12 00:56:01;;;;;;;15.18;14.43;;;;;;;15.69;100.00;100072.72;5046306;28;20025;-63
2022/09/12 00:58:30;;;;;;;15.07;14.27;;;;;;;15.63;100.00;100078.94;5052385;28;20167;-64
2022/09/12 01:00:57;;;;;;;15.32;14.52;;;;;;;15.69;100.00;100072.72;5053230;28;20400;-64
2022/09/12 01:03:23;;;;;;;14.88;14.10;;;;;;;15.66;100.00;100077.69;5054831;28;20028;-63
2022/09/12 01:05:57;;;;;;;15.35;14.55;;;;;;;15.71;100.00;100073.31;5054398;28;20103;-63
2022/09/12 01:08:24;;;;;;;15.20;14.40;;;;;;;15.66;100.00;100072.34;5054371;28;20393;-64
2022/09/12 01:10:51;;;;;;;15.18;14.38;;;;;;;15.59;100.00;100075.03;5050995;28;20029;-63
2022/09/12 01:13:17;;;;;;;15.30;14.50;;;;;;;15.65;100.00;100076.88;5051127;28;20492;-63
2022/09/12 01:15:42;;;;;;;15.70;14.80;;;;;;;15.71;100.00;100075.16;5054402;28;20024;-63
2022/09/12 01:18:18;;;;;;;15.20;14.40;;;;;;;15.71;100.00;100081.34;5054224;28;20024;-63
2022/09/12 01:21:24;;;;;;;15.73;14.82;;;;;;;15.56;100.00;100075.47;5054181;28;20076;-64
2022/09/12 01:24:19;;;;;;;15.25;14.45;;;;;;;15.69;100.00;100071.91;5030608;28;20029;-63
2022/09/12 01:26:56;;;;;;;15.80;14.93;;;;;;;15.56;100.00;100064.78;5034104;28;20030;-63
2022/09/12 01:29:48;;;;;;;15.73;14.85;;;;;;;15.38;100.00;100067.41;5046867;28;20034;-63
2022/09/12 01:32:35;;;;;;;15.10;14.30;;;;;;;15.41;100.00;100072.28;5049663;28;20083;-63
2022/09/12 01:35:48;;;;;;;15.57;14.77;;;;;;;15.33;100.00;100072.56;5053803;28;20028;-64
2022/09/12 01:38:36;;;;;;;15.25;14.45;;;;;;;15.34;100.00;100071.53;5031490;28;20612;-63
2022/09/12 01:41:24;;;;;;;15.48;14.68;;;;;;;15.32;100.00;100076.28;5023395;28;20047;-64
2022/09/12 01:44:01;;;;;;;15.30;14.50;;;;;;;15.35;100.00;100079.34;5052928;28;20396;-63
2022/09/12 01:46:53;;;;;;;15.80;15.00;;;;;;;15.32;100.00;100078.94;5047455;28;20029;-62
2022/09/12 01:49:28;;;;;;;15.82;14.93;;;;;;;15.13;100.00;100073.53;5041950;28;20082;-63
2022/09/12 01:52:03;;;;;;;16.10;15.20;;;;;;;15.06;100.00;100070.09;5053516;28;20028;-63
2022/09/12 01:54:44;;;;;;;15.48;14.68;;;;;;;15.24;100.00;100076.53;5048760;28;20033;-64
2022/09/12 01:57:18;;;;;;;15.90;15.00;;;;;;;15.21;100.00;100077.81;5051450;28;20032;-63
2022/09/12 01:59:48;;;;;;;15.50;14.70;;;;;;;15.21;100.00;100099.19;5040073;28;20040;-64
2022/09/12 02:02:31;;;;;;;15.30;14.50;;;;;;;15.24;100.00;100093.41;5053675;28;20451;-63
2022/09/12 02:05:05;;;;;;;15.30;14.50;;;;;;;15.25;100.00;100091.53;5053262;28;20033;-63
2022/09/12 02:08:01;;;;;;;15.10;14.30;;;;;;;15.30;100.00;100092.53;5039952;28;20067;-63
2022/09/12 02:10:35;;;;;;;15.80;14.90;;;;;;;14.99;100.00;100082.66;5048655;28;20037;-63
2022/09/12 02:13:57;;;;;;;15.15;14.35;;;;;;;15.15;100.00;100084.81;5053058;28;20035;-64
2022/09/12 02:16:39;;;;;;;15.30;14.50;;;;;;;15.17;100.00;100085.41;5029444;28;20033;-63
2022/09/12 02:19:20;;;;;;;15.38;14.57;;;;;;;15.08;100.00;100081.38;5062241;28;20057;-64
2022/09/12 02:21:54;;;;;;;15.30;14.50;;;;;;;15.12;100.00;100082.56;5052906;28;20027;-64
2022/09/12 02:24:21;;;;;;;;;;;;;;;15.21;100.00;100091.16;5051501;28;20047;-63
2022/09/12 02:26:53;;;;;;;15.27;14.48;;;;;;;15.16;100.00;100083.78;5052784;28;19908;-63
2022/09/12 02:29:19;;;;;;;14.90;14.10;;;;;;;15.18;100.00;100087.06;5052814;28;20477;-64
2022/09/12 02:32:11;;;;;;;15.40;14.55;;;;;;;15.20;100.00;100087.69;5048663;28;20037;-63
2022/09/12 02:34:54;;;;;;;16.35;15.38;;;;;;;15.20;100.00;100097.53;5043917;28;20028;-63
2022/09/12 02:37:31;;;;;;;15.85;14.95;;;;;;;15.27;100.00;100100.16;5052461;28;20492;-63
2022/09/12 02:39:58;;;;;;;14.90;14.10;;;;;;;15.18;100.00;100087.06;5052298;28;20024;-63
2022/09/12 02:42:24;;;;;;;15.18;14.38;;;;;;;15.27;100.00;100094.81;5051328;28;20029;-64
2022/09/12 02:44:53;;;;;;;14.90;14.10;;;;;;;15.29;100.00;100098.91;5048905;28;20394;-63
2022/09/12 02:47:43;;;;;;;15.77;14.85;;;;;;;15.29;100.00;100106.13;5051083;28;20028;-64
2022/09/12 02:50:09;;;;;;;15.38;14.57;;;;;;;15.32;100.00;100106.50;5046767;28;20078;-63
2022/09/12 02:52:35;;;;;;;14.90;14.10;;;;;;;15.28;100.00;100109.84;5052310;28;20519;-63
2022/09/12 02:55:03;;;;;;;15.50;14.70;;;;;;;15.31;100.00;100118.22;5051065;28;20028;-63
2022/09/12 02:57:29;;;;;;;15.07;14.27;;;;;;;15.30;100.00;100116.59;5051036;28;20427;-64
2022/09/12 02:59:59;;;;;;;15.27;14.48;;;;;;;15.33;100.00;100120.66;5052548;28;20025;-63
2022/09/12 03:02:45;;;;;;;15.25;14.45;;;;;;;15.42;100.00;100119.38;5050988;28;20437;-64
2022/09/12 03:05:34;;;;;;;15.40;14.60;;;;;;;15.29;100.00;100114.13;5043936;28;20033;-64
2022/09/12 03:08:21;;;;;;;15.23;14.43;;;;;;;15.27;100.00;100129.53;5048274;28;20037;-64
2022/09/12 03:11:01;;;;;;;14.93;14.15;;;;;;;15.23;100.00;100126.50;5051843;28;20028;-63
2022/09/12 03:13:45;;;;;;;15.30;14.50;;;;;;;15.26;100.00;100125.25;5052089;28;20112;-63
2022/09/12 03:16:33;;;;;;;15.40;14.60;;;;;;;15.23;100.00;100126.50;5051802;28;20075;-63
2022/09/12 03:19:20;;;;;;;15.57;14.68;;;;;;;15.19;100.00;100120.75;5049113;28;20575;-63
2022/09/12 03:22:00;;;;;;;15.93;15.02;;;;;;;15.23;100.00;100134.50;5051303;28;20029;-63
2022/09/12 03:24:51;;;;;;;15.75;14.85;;;;;;;15.11;100.00;100125.53;5050647;28;20118;-63
2022/09/12 03:27:43;;;;;;;15.30;14.50;;;;;;;15.03;100.00;100129.28;5047570;28;20120;-63
2022/09/12 03:30:11;;;;;;;15.20;14.40;;;;;;;15.09;100.00;100127.59;5040993;28;20033;-64
2022/09/12 03:32:51;;;;;;;15.90;15.00;;;;;;;15.10;100.00;100130.06;5051522;28;20052;-63
2022/09/12 03:35:19;;;;;;;15.77;14.88;;;;;;;15.13;100.00;100134.13;5037269;28;20021;-63
2022/09/12 03:37:45;;;;;;;15.27;14.48;;;;;;;15.04;100.00;100138.91;5063550;28;20083;-65
2022/09/12 03:40:11;;;;;;;15.38;14.57;;;;;;;15.04;100.00;100138.91;5045701;28;20029;-63
2022/09/12 03:42:37;;;;;;;16.33;15.32;;;;;;;15.04;100.00;100144.25;5051206;28;20047;-63
2022/09/12 03:45:07;;;;;;;15.02;14.23;;;;;;;15.03;100.00;100142.63;5051127;28;20041;-63
2022/09/12 03:47:33;;;;;;;16.23;15.23;;;;;;;14.92;100.00;100140.66;5047713;28;20115;-63
2022/09/12 03:49:58;;;;;;;16.40;15.40;;;;;;;14.87;100.00;100151.94;5051539;28;20120;-63
2022/09/12 03:52:24;;;;;;;15.75;14.85;;;;;;;14.90;100.00;100161.38;5051465;28;20079;-63
2022/09/12 03:54:49;;;;;;;15.13;14.32;;;;;;;14.89;100.00;100157.88;5051354;28;20384;-63
2022/09/12 03:57:15;;;;;;;15.73;14.82;;;;;;;14.88;100.00;100164.28;5051103;28;20496;-64
2022/09/12 03:59:41;;;;;;;16.15;15.23;;;;;;;14.95;100.00;100166.91;5044295;28;20368;-64
2022/09/12 04:02:08;;;;;;;15.73;14.82;;;;;;;15.00;100.00;100164.44;5051278;28;20476;-65
2022/09/12 04:04:34;;;;;;;15.20;14.40;;;;;;;14.94;100.00;100165.28;5051176;28;20032;-63
2022/09/12 04:06:59;;;;;;;17.25;16.15;;;;;;;14.97;100.00;100162.16;5044309;28;20048;-63
2022/09/12 04:09:25;;;;;;;16.27;15.30;;;;;;;15.22;100.00;100172.97;5038399;28;20036;-64
2022/09/12 04:11:50;;;;;;;14.73;14.00;;;;;;;15.50;100.00;100167.25;5046494;28;20025;-63
2022/09/12 04:14:16;;;;;;;16.30;15.30;;;;;;;15.36;100.00;100169.19;5050197;28;20041;-64
2022/09/12 04:16:41;;;;;;;15.88;14.98;;;;;;;15.50;100.00;100175.28;5050068;28;20432;-63
2022/09/12 04:19:08;;;;;;;15.48;14.57;;;;;;;16.01;100.00;100172.47;5049664;28;20041;-64
2022/09/12 04:21:34;;;;;;;15.48;14.60;;;;;;;16.20;100.00;100165.28;5051017;28;20029;-63
2022/09/12 04:23:59;;;;;;;15.23;14.43;;;;;;;16.08;100.00;100155.50;5042588;28;20062;-63
2022/09/12 04:26:25;;;;;;;14.82;14.02;;;;;;;16.09;100.00;100157.16;5046647;28;20021;-63
2022/09/12 04:28:53;;;;;;;15.57;14.68;;;;;;;16.43;100.00;100169.19;5040128;28;20124;-63
2022/09/12 04:31:22;;;;;;;15.20;14.40;;;;;;;16.44;100.00;100160.09;5047264;28;20039;-63
2022/09/12 04:33:58;;;;;;;14.90;14.10;;;;;;;17.48;100.00;100163.56;5051207;28;20024;-63
2022/09/12 04:36:26;;;;;;;15.63;14.73;;;;;;;19.24;100.00;100149.06;5046576;28;20033;-64
2022/09/12 04:38:51;;;;;;;14.80;14.00;;;;;;;20.95;100.00;100143.06;5048302;28;20024;-63
2022/09/12 04:41:29;;;;;;;14.60;13.80;;;;;;;20.88;100.00;100149.72;5054486;28;20085;-64
2022/09/12 04:43:58;;;;;;;14.63;13.82;;;;;;;21.86;100.00;100153.13;5052732;28;20080;-64
2022/09/12 04:46:24;;;;;;;14.27;13.52;;;;;;;19.40;100.00;100157.41;5054522;28;20317;-64
2022/09/12 04:48:50;;;;;;;14.65;13.85;;;;;;;18.80;100.00;100168.59;5044847;28;20056;-64
2022/09/12 04:51:19;;;;;;;14.07;13.38;;;;;;;18.37;100.00;100164.44;5053831;28;20153;-65
2022/09/12 04:53:50;;;;;;;15.82;14.93;;;;;;;18.17;100.00;100170.16;5054616;28;20440;-64
2022/09/12 04:56:17;;;;;;;15.95;15.00;;;;;;;17.81;100.00;100163.94;5054241;28;20100;-65
2022/09/12 04:58:42;;;;;;;14.80;14.00;;;;;;;17.91;100.00;100168.72;5054235;28;20542;-65
2022/09/12 05:01:12;;;;;;;15.20;14.40;;;;;;;17.87;100.00;100171.06;5044092;28;20037;-65
2022/09/12 05:03:39;;;;;;;14.75;13.95;;;;;;;18.11;100.00;100173.75;5050230;28;20025;-64
2022/09/12 05:06:10;;;;;;;14.98;14.18;;;;;;;18.37;100.00;100173.31;5053302;28;20049;-64
2022/09/12 05:08:37;;;;;;;15.23;14.40;;;;;;;18.53;100.00;100169.09;5053873;28;20105;-65
2022/09/12 05:11:04;;;;;;;15.02;14.23;;;;;;;18.80;100.00;100163.22;5054043;28;20576;-65
2022/09/12 05:13:30;;;;;;;15.68;14.77;;;;;;;18.24;100.00;100170.84;5052798;28;20451;-64
2022/09/12 05:15:59;;;;;;;15.85;14.95;;;;;;;18.02;100.00;100184.03;5046380;28;20033;-64
2022/09/12 05:18:25;;;;;;;16.00;15.10;;;;;;;18.01;100.00;100174.34;5051434;28;20071;-65
2022/09/12 05:20:52;;;;;;;14.77;13.98;;;;;;;17.79;100.00;100173.25;5053476;28;20029;-65
2022/09/12 05:23:18;;;;;;;15.90;15.00;;;;;;;18.04;100.00;100163.13;5042126;28;20393;-64
2022/09/12 05:25:49;;;;;;;15.50;14.60;;;;;;;18.34;100.00;100171.06;5052270;28;20033;-64
2022/09/12 05:28:14;;;;;;;14.43;13.73;;;;;;;18.23;100.00;100175.41;5054022;28;20170;-64
2022/09/12 05:30:40;;;;;;;16.30;15.30;;;;;;;17.86;100.00;100177.47;5050519;28;20480;-65
2022/09/12 05:33:05;;;;;;;15.13;14.32;;;;;;;17.54;100.00;100168.84;5047361;28;20037;-64
2022/09/12 05:35:32;;;;;;;14.93;14.13;;;;;;;17.73;100.00;100188.41;5045974;28;20021;-66
2022/09/12 05:37:57;;;;;;;15.65;14.75;;;;;;;17.88;100.00;100178.06;5053718;28;20028;-65
2022/09/12 05:40:23;;;;;;;15.73;14.82;;;;;;;18.02;100.00;100173.28;5041596;28;20037;-66
2022/09/12 05:42:48;;;;;;;14.75;13.95;;;;;;;17.85;100.00;100183.09;5053934;28;20400;-66
2022/09/12 05:45:14;;;;;;;14.75;13.95;;;;;;;17.92;100.00;100183.75;5051199;28;20114;-70
2022/09/12 05:47:40;;;;;;;14.48;13.77;;;;;;;17.92;100.00;100173.03;5045371;28;20067;-65
2022/09/12 05:50:09;;;;;;;14.93;14.13;;;;;;;17.71;100.00;100174.41;5052977;28;20029;-64
2022/09/12 05:52:36;;;;;;;16.20;15.20;;;;;;;17.65;100.00;100170.75;5050459;28;20489;-63
2022/09/12 05:55:01;;;;;;;15.77;14.85;;;;;;;18.05;100.00;100170.13;5052745;28;20017;-63
2022/09/12 05:57:28;;;;;;;16.85;15.75;;;;;;;17.86;100.00;100174.78;5051088;28;20159;-64
2022/09/12 05:59:53;;;;;;;16.85;15.77;;;;;;;17.60;100.00;100183.22;5052649;28;20107;-63
2022/09/12 06:02:19;;;;;;;15.20;14.40;;;;;;;17.57;100.00;100172.94;5052705;28;20488;-64
2022/09/12 06:04:45;;;;;;;15.15;14.35;;;;;;;17.74;100.00;100181.19;5052987;28;20029;-64
2022/09/12 06:07:10;;;;;;;15.35;14.50;;;;;;;17.53;100.00;100175.25;5044936;28;20452;-64
2022/09/12 06:09:36;;;;;;;14.77;13.98;;;;;;;17.30;100.00;100170.63;5052798;28;20488;-64
2022/09/12 06:12:02;;;;;;;15.27;14.48;;;;;;;17.47;100.00;100170.81;5052819;28;20043;-64
2022/09/12 06:14:28;;;;;;;14.93;14.13;;;;;;;17.29;100.00;100177.03;5044431;28;20030;-64
2022/09/12 06:16:53;;;;;;;15.50;14.63;;;;;;;17.32;100.00;100184.63;5052809;28;20035;-64
2022/09/12 06:19:20;;;;;;;15.55;14.65;;;;;;;17.19;100.00;100179.47;5052825;28;20546;-64
2022/09/12 06:21:48;;;;;;;16.88;15.77;;;;;;;16.68;100.00;100182.53;5052671;28;20032;-62
2022/09/12 06:24:16;;;;;;;15.55;14.65;;;;;;;16.56;100.00;100183.25;5052278;28;20098;-64
2022/09/12 06:26:42;;;;;;;15.93;15.02;;;;;;;16.42;100.00;100179.06;5052682;28;20021;-64
2022/09/12 06:29:10;;;;;;;15.80;14.90;;;;;;;16.72;100.00;100191.75;5050939;28;20032;-63
2022/09/12 06:31:37;;;;;;;16.52;15.52;;;;;;;16.71;100.00;100188.28;5051662;28;20029;-64
2022/09/12 06:34:06;;;;;;;16.17;15.20;;;;;;;16.79;100.00;100195.19;5052711;28;20125;-67
2022/09/12 06:36:35;;;;;;;15.85;14.93;;;;;;;16.79;100.00;100192.50;5051799;28;20488;-64
2022/09/12 06:39:05;;;;;;;15.80;14.90;;;;;;;17.22;100.00;100186.22;5052427;28;20027;-64
2022/09/12 06:41:31;;;;;;;16.17;15.20;;;;;;;16.98;100.00;100196.00;5052100;28;20096;-65
2022/09/12 06:43:57;;;;;;;15.15;14.32;;;;;;;17.01;100.00;100198.22;5051913;28;20048;-64
2022/09/12 06:46:24;;;;;;;15.63;14.73;;;;;;;16.98;100.00;100207.53;5052346;28;20779;-64
2022/09/12 06:48:50;;;;;;;15.18;14.38;;;;;;;17.23;100.00;100202.06;5051139;28;20499;-63
2022/09/12 06:51:18;;;;;;;15.45;14.55;;;;;;;16.99;100.00;100205.69;5052021;28;20028;-63
2022/09/12 06:53:46;;;;;;;15.20;14.40;;;;;;;17.08;100.00;100202.47;5052196;28;20052;-62
2022/09/12 06:56:13;;;;;;;14.75;13.95;;;;;;;17.40;100.00;100200.38;5051095;28;20017;-64
2022/09/12 06:58:39;;;;;;;15.25;14.43;;;;;;;17.71;100.00;100200.44;5052166;28;20033;-63
2022/09/12 07:01:07;;;;;;;15.57;14.68;;;;;;;18.04;100.00;100198.03;5051663;28;20029;-63
2022/09/12 07:03:33;;;;;;;15.48;14.57;;;;;;;17.88;100.00;100183.41;5051654;28;20115;-64
2022/09/12 07:06:12;;;;;;;15.73;14.80;;;;;;;18.98;100.00;100193.44;5051077;28;20112;-64
2022/09/12 07:08:38;;;;;;;14.45;13.65;;;;;;;19.73;100.00;100186.25;5047304;28;20021;-64
2022/09/12 07:11:19;;;;;;;16.05;15.05;;;;;;;20.02;100.00;100192.38;5051566;28;20028;-64
2022/09/12 07:13:48;;;;;;;14.57;13.77;;;;;;;19.66;100.00;100188.28;5051661;28;20104;-64
2022/09/12 07:16:14;;;;;;;15.05;14.25;;;;;;;20.01;100.00;100190.75;5051491;28;20033;-65
2022/09/12 07:18:40;;;;;;;16.60;15.57;;;;;;;19.72;100.00;100192.69;5051292;28;20024;-64
2022/09/12 07:21:10;;;;;;;14.80;14.00;;;;;;;18.91;100.00;100189.25;5050429;28;20037;-64
2022/09/12 07:23:36;;;;;;;15.35;14.45;;;;;;;18.56;100.00;100189.28;5051083;28;20104;-64
2022/09/12 07:26:02;;;;;;;14.68;13.88;;;;;;;18.76;100.00;100193.25;5049293;28;20029;-64
2022/09/12 07:28:31;;;;;;;14.93;14.13;;;;;;;18.70;100.00;100194.19;5051780;28;20025;-64
2022/09/12 07:30:57;;;;;;;15.43;14.52;;;;;;;18.67;100.00;100200.06;5051514;28;20396;-65
2022/09/12 07:33:26;;;;;;;15.70;14.80;;;;;;;17.99;100.00;100192.53;5051538;28;20024;-64
2022/09/12 07:35:53;;;;;;;15.80;14.90;;;;;;;17.88;100.00;100194.16;5051553;28;20083;-64
2022/09/12 07:38:19;;;;;;;15.35;14.45;;;;;;;18.61;100.00;100195.59;5046290;28;20025;-64
2022/09/12 07:40:45;;;;;;;14.82;14.02;;;;;;;18.63;100.00;100192.66;5048116;28;20028;-64
2022/09/12 07:43:10;;;;;;;15.15;14.35;;;;;;;19.21;100.00;100197.09;5051130;28;20078;-63
2022/09/12 07:45:36;;;;;;;14.90;14.10;;;;;;;18.86;100.00;100199.88;5051143;28;20049;-64
2022/09/12 07:48:02;;;;;;;15.35;14.45;;;;;;;19.49;100.00;100205.19;5051326;28;20106;-65
2022/09/12 07:50:28;;;;;;;15.00;14.20;;;;;;;18.74;100.00;100202.63;5051029;28;20029;-64
2022/09/12 07:52:54;;;;;;;16.33;15.32;;;;;;;19.46;100.00;100200.31;5050916;28;20036;-64
2022/09/12 07:55:21;;;;;;;15.15;14.32;;;;;;;19.80;100.00;100194.97;5045190;28;20021;-64
2022/09/12 07:57:50;;;;;;;14.32;13.63;;;;;;;19.72;100.00;100195.38;5031416;28;20116;-64
2022/09/12 08:00:16;;;;;;;14.80;14.00;;;;;;;22.68;99.50;100184.22;5050126;28;20025;-64
2022/09/12 08:02:42;;;;;;;14.25;13.50;;;;;;;23.34;92.03;100179.06;5050881;28;20090;-64
2022/09/12 08:05:07;;;;;;;12.95;12.35;;;;;;;23.70;90.79;100185.38;5051039;28;20037;-64
2022/09/12 08:07:33;;;;;;;13.98;13.27;;;;;;;22.01;94.10;100184.84;5051497;28;20037;-64
2022/09/12 08:09:59;;;;;;;13.25;12.63;;;;;;;21.87;96.02;100184.44;5055105;28;20108;-63
2022/09/12 08:12:28;;;;;;;14.75;13.95;;;;;;;22.56;92.15;100183.63;5054014;28;20029;-63
2022/09/12 08:14:53;;;;;;;14.15;13.45;;;;;;;22.11;95.03;100187.66;5055181;28;20078;-64
2022/09/12 08:17:19;;;;;;;14.57;13.77;;;;;;;21.52;96.60;100180.38;5060451;28;20392;-63
2022/09/12 08:19:45;;;;;;;14.55;13.75;;;;;;;21.30;95.96;100178.78;5061293;28;20033;-63
2022/09/12 08:22:10;;;;;;;13.80;13.10;;;;;;;21.02;98.86;100180.63;5050477;28;20024;-64
2022/09/12 08:24:38;;;;;;;13.95;13.25;;;;;;;21.59;96.95;100174.75;5055356;28;20511;-63
2022/09/12 08:27:04;;;;;;;13.95;13.25;;;;;;;21.05;99.87;100174.72;5055289;28;20032;-64
2022/09/12 08:29:30;;;;;;;14.48;13.70;;;;;;;19.87;100.00;100166.84;5054075;28;20025;-63
2022/09/12 08:31:55;;;;;;;14.50;13.70;;;;;;;19.46;100.00;100178.78;5054793;28;20036;-64
2022/09/12 08:34:21;;;;;;;15.15;14.35;;;;;;;20.10;100.00;100176.63;5054808;28;20383;-64
2022/09/12 08:36:46;;;;;;;14.80;14.00;;;;;;;20.30;100.00;100169.94;5054816;28;20039;-65
2022/09/12 08:39:13;;;;;;;15.32;14.43;;;;;;;20.20;100.00;100173.31;5054495;28;20021;-64
2022/09/12 08:41:46;;;;;;;15.30;14.50;;;;;;;19.64;100.00;100169.69;5054656;28;20017;-64
2022/09/12 08:44:36;;;;;;;14.63;13.82;;;;;;;19.31;100.00;100173.09;5054623;28;20055;-64
2022/09/12 08:47:18;;;;;;;15.77;14.88;;;;;;;18.47;100.00;100165.47;5053389;28;20037;-64
2022/09/12 08:50:14;;;;;;;14.35;13.65;;;;;;;18.84;100.00;100170.56;5054547;28;20047;-64
2022/09/12 08:52:43;;;;;;;15.50;14.60;;;;;;;18.92;100.00;100172.88;5041602;28;20048;-64
2022/09/12 08:55:35;;;;;;;14.25;13.48;;;;;;;18.68;100.00;100174.81;5054075;28;20546;-63
2022/09/12 08:58:16;;;;;;;14.52;13.75;;;;;;;18.42;100.00;100164.53;5054595;28;20028;-64
2022/09/12 09:01:14;;;;;;;15.23;14.43;;;;;;;18.46;100.00;100166.53;5054352;28;20474;-64
2022/09/12 09:04:11;;;;;;;15.50;14.60;;;;;;;19.05;100.00;100163.75;5053484;28;20087;-63
2022/09/12 09:06:47;;;;;;;15.10;14.30;;;;;;;18.58;100.00;100163.00;5054453;28;20017;-64
2022/09/12 09:09:38;;;;;;;15.65;14.75;;;;;;;18.54;100.00;100161.84;5045064;28;20053;-64
2022/09/12 09:12:25;;;;;;;15.30;14.50;;;;;;;18.55;100.00;100158.91;5051338;28;20037;-64
2022/09/12 09:14:56;;;;;;;15.23;14.40;;;;;;;18.50;100.00;100159.59;5052427;28;20029;-64
2022/09/12 09:17:31;;;;;;;15.88;14.98;;;;;;;18.38;100.00;100156.13;5051115;28;20350;-64
2022/09/12 09:20:10;;;;;;;;;;;;;;;18.27;100.00;100159.63;5052311;28;20137;-63
2022/09/12 09:22:48;;;;;;;15.23;14.38;;;;;;;18.46;100.00;100150.41;5053976;28;19974;-65
2022/09/12 09:25:35;;;;;;;14.85;14.05;;;;;;;18.62;100.00;100148.03;5053798;28;20028;-63
2022/09/12 09:28:06;;;;;;;14.95;14.15;;;;;;;18.66;100.00;100160.81;5053779;28;20032;-64
2022/09/12 09:30:34;;;;;;;15.05;14.25;;;;;;;19.27;100.00;100163.88;5053845;28;20025;-63
2022/09/12 09:33:04;;;;;;;14.20;13.50;;;;;;;19.04;100.00;100162.91;5053672;28;20059;-63
2022/09/12 09:35:47;;;;;;;15.30;14.43;;;;;;;19.15;100.00;100163.09;5053598;28;20025;-63
2022/09/12 09:39:10;;;;;;;15.00;14.20;;;;;;;19.02;100.00;100164.19;5040598;28;20037;-63
2022/09/12 09:41:47;;;;;;;14.70;13.90;;;;;;;19.20;100.00;100168.59;5040242;28;20021;-64
2022/09/12 09:44:12;;;;;;;15.35;14.45;;;;;;;19.93;100.00;100170.44;5031017;28;20241;-64
2022/09/12 09:46:38;;;;;;;14.70;13.90;;;;;;;19.36;100.00;100169.69;5033489;28;20538;-64
2022/09/12 09:49:05;;;;;;;16.10;15.13;;;;;;;19.82;100.00;100165.94;5053195;28;20029;-64
2022/09/12 09:51:36;;;;;;;14.85;14.05;;;;;;;20.12;100.00;100169.16;5053095;28;20481;-64
2022/09/12 09:54:22;;;;;;;14.60;13.80;;;;;;;20.50;100.00;100172.94;5052439;28;20033;-63
2022/09/12 09:56:48;;;;;;;14.25;13.55;;;;;;;20.48;100.00;100168.84;5053463;28;20025;-64
2022/09/12 09:59:13;;;;;;;14.10;13.40;;;;;;;20.33;100.00;100170.22;5052024;28;20044;-64
2022/09/12 10:02:02;;;;;;;14.50;13.70;;;;;;;20.37;100.00;100170.56;5046699;28;20112;-64
2022/09/12 10:04:33;;;;;;;14.73;13.93;;;;;;;20.39;100.00;100171.13;5045806;28;20108;-64
2022/09/12 10:07:01;;;;;;;14.68;13.88;;;;;;;20.55;100.00;100169.50;5052935;28;20606;-64
2022/09/12 10:09:28;;;;;;;14.30;13.57;;;;;;;20.59;100.00;100167.94;5053231;28;20082;-64
2022/09/12 10:11:55;;;;;;;14.48;13.70;;;;;;;20.68;100.00;100163.75;5052323;28;20035;-65
2022/09/12 10:14:36;;;;;;;14.70;13.90;;;;;;;20.02;100.00;100162.78;5052437;28;20029;-64
2022/09/12 10:17:22;;;;;;;14.80;14.00;;;;;;;20.05;100.00;100173.03;5053093;28;20031;-63
2022/09/12 10:19:48;;;;;;;14.93;14.13;;;;;;;20.20;100.00;100167.91;5052826;28;20039;-64
2022/09/12 10:22:17;;;;;;;14.25;13.55;;;;;;;19.94;100.00;100169.38;5052977;28;20480;-64
2022/09/12 10:24:49;;;;;;;14.48;13.75;;;;;;;20.10;100.00;100165.84;5052988;28;20033;-63
2022/09/12 10:27:19;;;;;;;14.95;14.15;;;;;;;19.72;100.00;100168.47;5053253;28;20484;-63
2022/09/12 10:29:47;;;;;;;13.85;13.15;;;;;;;19.81;100.00;100175.91;5051823;28;20484;-64
2022/09/12 10:32:22;;;;;;;14.40;13.70;;;;;;;19.43;100.00;100170.34;5051524;28;20380;-64
2022/09/12 10:34:52;;;;;;;15.02;14.23;;;;;;;19.89;100.00;100169.28;5052600;28;20051;-64
2022/09/12 10:37:33;;;;;;;14.82;14.02;;;;;;;19.65;100.00;100168.63;5052935;28;20032;-63
2022/09/12 10:40:02;;;;;;;14.70;13.90;;;;;;;19.84;100.00;100180.00;5052588;28;20049;-63
2022/09/12 10:42:50;;;;;;;14.20;13.50;;;;;;;19.49;100.00;100175.59;5052747;28;20021;-63
2022/09/12 10:45:35;;;;;;;14.07;13.38;;;;;;;19.18;100.00;100181.47;5051375;28;20106;-63
2022/09/12 10:48:20;;;;;;;15.48;14.57;;;;;;;19.60;100.00;100180.09;5050993;28;20020;-64
2022/09/12 10:50:46;;;;;;;14.90;14.10;;;;;;;19.13;100.00;100184.88;5040079;28;20032;-63
2022/09/12 10:53:20;;;;;;;14.98;14.18;;;;;;;19.60;100.00;100184.69;5052077;28;20028;-64
2022/09/12 10:55:58;;;;;;;14.70;13.90;;;;;;;19.35;100.00;100176.13;5052072;28;20040;-64
2022/09/12 10:58:35;;;;;;;14.70;13.90;;;;;;;19.54;100.00;100185.63;5052338;28;20021;-64
2022/09/12 11:01:27;;;;;;;14.60;13.80;;;;;;;19.60;100.00;100181.97;5040821;28;20083;-64
2022/09/12 11:04:25;;;;;;;14.48;13.70;;;;;;;19.98;100.00;100186.69;5049627;28;20118;-64
2022/09/12 11:07:20;;;;;;;14.88;14.07;;;;;;;19.89;100.00;100185.44;5047235;28;20495;-64
2022/09/12 11:10:26;;;;;;;14.73;13.93;;;;;;;20.38;100.00;100186.47;5034188;28;20472;-64
2022/09/12 11:13:08;;;;;;;14.32;13.52;;;;;;;20.21;100.00;100187.56;5051779;28;20400;-64
2022/09/12 11:15:37;;;;;;;14.40;13.70;;;;;;;20.24;100.00;100184.38;5051868;28;20052;-66
2022/09/12 11:18:25;;;;;;;14.68;13.88;;;;;;;19.88;100.00;100181.13;5051525;28;20020;-64
2022/09/12 11:21:15;;;;;;;14.65;13.85;;;;;;;20.40;100.00;100181.66;5050415;28;20021;-65
2022/09/12 11:24:12;;;;;;;14.77;13.98;;;;;;;20.45;100.00;100177.44;5051812;28;20024;-64
2022/09/12 11:26:40;;;;;;;14.18;13.48;;;;;;;20.50;100.00;100180.22;5051540;28;20036;-64